createdAt,value
2023-04-04T00:00:40.306Z,-0.30
2023-04-04T00:03:07.622Z,-0.32
2023-04-04T00:05:36.180Z,-0.28
2023-04-04T00:08:04.394Z,-0.22
2023-04-04T00:10:31.329Z,-0.16
2023-04-04T00:12:59.012Z,-0.13
2023-04-04T00:15:26.364Z,-0.12
2023-04-04T00:17:53.334Z,-0.15
2023-04-04T00:20:20.506Z,-0.15
2023-04-04T00:22:47.442Z,-0.14
2023-04-04T00:25:14.431Z,-0.13
2023-04-04T00:27:41.346Z,-0.10
2023-04-04T00:30:09.192Z,-0.09
2023-04-04T00:32:36.210Z,-0.10
2023-04-04T00:35:03.892Z,-0.10
2023-04-04T00:37:30.959Z,-0.12
2023-04-04T00:39:57.945Z,-0.13
2023-04-04T00:42:25.253Z,-0.13
2023-04-04T00:44:52.698Z,-0.17
2023-04-04T00:47:24.510Z,-0.20
2023-04-04T00:49:51.854Z,-0.24
2023-04-04T00:52:18.720Z,-0.31
2023-04-04T00:54:45.693Z,-0.36
2023-04-04T00:57:13.275Z,-0.42
2023-04-04T00:59:40.511Z,-0.48
2023-04-04T01:02:08.509Z,-0.52
2023-04-04T01:04:37.059Z,-0.55
2023-04-04T01:07:04.550Z,-0.59
2023-04-04T01:09:31.975Z,-0.64
2023-04-04T01:11:59.197Z,-0.70
2023-04-04T01:14:28.018Z,-0.74
2023-04-04T01:16:55.678Z,-0.78
2023-04-04T01:19:48.366Z,-0.86
2023-04-04T01:22:21.277Z,-0.89
2023-04-04T01:24:51.109Z,-0.94
2023-04-04T01:27:18.984Z,-0.97
2023-04-04T01:29:54.456Z,-0.98
2023-04-04T01:32:43.735Z,-1.01
2023-04-04T01:35:50.939Z,-1.01
2023-04-04T01:38:50.164Z,-1.04
2023-04-04T01:41:20.473Z,-1.10
2023-04-04T01:43:54.016Z,-1.13
2023-04-04T01:46:23.284Z,-1.17
2023-04-04T01:48:51.144Z,-1.16
2023-04-04T01:51:23.940Z,-1.11
2023-04-04T01:53:52.063Z,-1.07
2023-04-04T01:56:19.210Z,-1.10
2023-04-04T01:58:46.388Z,-1.09
2023-04-04T02:01:14.197Z,-1.12
2023-04-04T02:03:41.395Z,-1.14
2023-04-04T02:06:09.114Z,-1.15
2023-04-04T02:08:36.420Z,-1.16
2023-04-04T02:11:04.401Z,-1.13
2023-04-04T02:13:31.335Z,-1.11
2023-04-04T02:16:00.931Z,-1.13
2023-04-04T02:18:28.313Z,-1.13
2023-04-04T02:20:57.602Z,-1.15
2023-04-04T02:23:25.277Z,-1.16
2023-04-04T02:25:52.328Z,-1.17
2023-04-04T02:28:20.661Z,-1.21
2023-04-04T02:30:48.353Z,-1.24
2023-04-04T02:33:15.691Z,-1.18
2023-04-04T02:35:42.673Z,-1.15
2023-04-04T02:38:09.740Z,-1.11
2023-04-04T02:40:46.264Z,-1.09
2023-04-04T02:43:13.475Z,-1.10
2023-04-04T02:45:41.690Z,-1.13
2023-04-04T02:48:19.869Z,-1.20
2023-04-04T02:50:49.617Z,-1.23
2023-04-04T02:53:17.332Z,-1.26
2023-04-04T02:55:46.277Z,-1.28
2023-04-04T02:58:13.578Z,-1.28
2023-04-04T03:00:40.866Z,-1.29
2023-04-04T03:03:08.357Z,-1.34
2023-04-04T03:05:41.542Z,-1.31
2023-04-04T03:08:08.933Z,-1.33
2023-04-04T03:10:36.094Z,-1.34
2023-04-04T03:13:04.114Z,-1.39
2023-04-04T03:15:34.633Z,-1.45
2023-04-04T03:18:03.343Z,-1.48
2023-04-04T03:20:33.031Z,-1.50
2023-04-04T03:23:00.026Z,-1.50
2023-04-04T03:25:27.127Z,-1.46
2023-04-04T03:27:55.202Z,-1.46
2023-04-04T03:30:27.186Z,-1.49
2023-04-04T03:32:55.308Z,-1.53
2023-04-04T03:35:22.384Z,-1.53
2023-04-04T03:37:49.426Z,-1.54
2023-04-04T03:40:16.998Z,-1.59
2023-04-04T03:42:43.940Z,-1.62
2023-04-04T03:45:13.746Z,-1.65
2023-04-04T03:47:42.639Z,-1.66
2023-04-04T03:50:10.722Z,-1.67
2023-04-04T03:52:41.272Z,-1.63
2023-04-04T03:55:09.130Z,-1.63
2023-04-04T03:57:36.432Z,-1.63
2023-04-04T04:00:08.261Z,-1.68
2023-04-04T04:02:41.299Z,-1.72
2023-04-04T04:05:10.186Z,-1.77
2023-04-04T04:07:37.204Z,-1.81
2023-04-04T04:10:05.488Z,-1.83
2023-04-04T04:12:33.204Z,-1.85
2023-04-04T04:15:00.381Z,-1.85
2023-04-04T04:17:29.306Z,-1.90
2023-04-04T04:19:56.971Z,-1.92
2023-04-04T04:22:24.855Z,-1.92
2023-04-04T04:24:51.917Z,-1.90
2023-04-04T04:27:19.411Z,-1.90
2023-04-04T04:29:46.358Z,-1.94
2023-04-04T04:32:17.710Z,-1.97
2023-04-04T04:34:49.066Z,-1.96
2023-04-04T04:37:17.914Z,-1.97
2023-04-04T04:39:52.179Z,-1.99
2023-04-04T04:42:31.973Z,-2.04
2023-04-04T04:45:00.952Z,-2.04
2023-04-04T04:47:32.014Z,-2.03
2023-04-04T04:50:01.554Z,-2.03
2023-04-04T04:52:38.275Z,-1.72
2023-04-04T04:55:06.440Z,-1.48
2023-04-04T04:57:36.600Z,-1.17
2023-04-04T05:00:10.941Z,-0.90
2023-04-04T05:02:38.213Z,-0.63
2023-04-04T05:05:06.445Z,-0.45
2023-04-04T05:07:34.324Z,-0.20
2023-04-04T05:10:02.192Z,-0.05
2023-04-04T05:12:29.254Z,0.03
2023-04-04T05:14:57.116Z,0.13
2023-04-04T05:17:24.877Z,0.08
2023-04-04T05:19:55.345Z,0.07
2023-04-04T05:22:23.496Z,0.12
2023-04-04T05:24:53.002Z,0.17
2023-04-04T05:27:23.986Z,-0.08
2023-04-04T05:29:57.704Z,-0.41
2023-04-04T05:32:27.240Z,-0.65
2023-04-04T05:35:03.896Z,-0.84
2023-04-04T05:37:39.480Z,-0.97
2023-04-04T05:40:11.265Z,-1.05
2023-04-04T05:42:38.818Z,-1.09
2023-04-04T05:45:06.795Z,-1.08
2023-04-04T05:47:33.831Z,-1.02
2023-04-04T05:50:01.998Z,-0.98
2023-04-04T05:52:31.187Z,-0.90
2023-04-04T05:54:58.792Z,-0.88
2023-04-04T05:57:29.371Z,-0.87
2023-04-04T05:59:58.815Z,-0.85
2023-04-04T06:02:26.684Z,-0.85
2023-04-04T06:04:57.769Z,-0.80
2023-04-04T06:07:36.722Z,-0.76
2023-04-04T06:10:05.563Z,-0.69
2023-04-04T06:12:35.540Z,-0.62
2023-04-04T06:15:07.306Z,-0.54
2023-04-04T06:17:34.800Z,-0.44
2023-04-04T06:20:02.026Z,-0.36
2023-04-04T06:22:29.029Z,-0.29
2023-04-04T06:24:56.590Z,-0.22
2023-04-04T06:27:25.933Z,-0.13
2023-04-04T06:29:52.953Z,-0.09
2023-04-04T06:32:22.428Z,0.02
2023-04-04T06:34:49.593Z,0.12
2023-04-04T06:37:20.640Z,0.23
2023-04-04T06:39:54.168Z,0.34
2023-04-04T06:42:27.071Z,0.49
2023-04-04T06:44:54.573Z,0.61
2023-04-04T06:47:22.509Z,0.73
2023-04-04T06:49:49.679Z,0.86
2023-04-04T06:52:17.608Z,1.00
2023-04-04T06:54:44.611Z,1.14
2023-04-04T06:57:11.556Z,1.31
2023-04-04T06:59:38.512Z,1.46
2023-04-04T07:02:05.984Z,1.63
2023-04-04T07:04:35.141Z,1.79
2023-04-04T07:07:02.262Z,1.93
2023-04-04T07:09:29.835Z,2.06
2023-04-04T07:11:57.106Z,2.16
2023-04-04T07:14:25.429Z,2.31
2023-04-04T07:16:53.367Z,2.40
2023-04-04T07:19:24.125Z,2.54
2023-04-04T07:21:51.161Z,2.69
2023-04-04T07:24:18.186Z,2.83
2023-04-04T07:26:45.345Z,2.97
2023-04-04T07:29:12.359Z,3.10
2023-04-04T07:31:39.525Z,3.20
2023-04-04T07:34:07.436Z,3.31
2023-04-04T07:36:34.498Z,3.43
2023-04-04T07:39:01.453Z,3.55
2023-04-04T07:41:28.466Z,3.67
2023-04-04T07:43:55.430Z,3.79
2023-04-04T07:46:22.555Z,3.87
2023-04-04T07:48:50.581Z,3.93
2023-04-04T07:51:17.974Z,4.03
2023-04-04T07:53:44.895Z,4.12
2023-04-04T07:56:11.837Z,4.23
2023-04-04T07:58:38.842Z,4.33
2023-04-04T08:01:05.820Z,4.46
2023-04-04T08:03:32.930Z,4.53
2023-04-04T08:06:00.071Z,4.59
2023-04-04T08:08:27.178Z,4.65
2023-04-04T08:10:54.177Z,4.69
2023-04-04T08:13:21.312Z,4.74
2023-04-04T08:15:48.538Z,4.84
2023-04-04T08:18:16.191Z,4.92
2023-04-04T08:20:43.258Z,5.01
2023-04-04T08:23:10.619Z,5.15
2023-04-04T08:25:37.881Z,5.21
2023-04-04T08:28:05.657Z,5.31
2023-04-04T08:30:32.863Z,5.40
2023-04-04T08:32:59.910Z,5.50
2023-04-04T08:35:27.002Z,5.51
2023-04-04T08:37:53.998Z,5.60
2023-04-04T08:40:21.265Z,5.69
2023-04-04T08:42:51.940Z,5.83
2023-04-04T08:45:19.482Z,5.96
2023-04-04T08:47:50.424Z,6.00
2023-04-04T08:50:19.364Z,6.01
2023-04-04T08:52:47.035Z,6.12
2023-04-04T08:55:15.334Z,6.26
2023-04-04T08:57:43.409Z,6.39
2023-04-04T09:00:11.399Z,6.44
2023-04-04T09:03:15.358Z,6.50
2023-04-04T09:05:44.801Z,6.60
2023-04-04T09:08:13.246Z,6.70
2023-04-04T09:10:44.108Z,6.76
2023-04-04T09:13:15.957Z,6.77
2023-04-04T09:15:49.137Z,6.80
2023-04-04T09:18:18.059Z,6.88
2023-04-04T09:20:47.448Z,6.98
2023-04-04T09:23:23.841Z,6.96
2023-04-04T09:28:24.455Z,7.03
2023-04-04T09:30:52.773Z,7.11
2023-04-04T09:33:24.594Z,7.17
2023-04-04T09:35:58.558Z,7.20
2023-04-04T09:38:29.540Z,7.25
2023-04-04T09:40:57.634Z,7.19
2023-04-04T09:43:26.349Z,7.14
2023-04-04T09:45:55.143Z,7.11
2023-04-04T09:48:34.862Z,7.14
2023-04-04T09:51:06.493Z,7.25
2023-04-04T09:53:39.705Z,7.43
2023-04-04T09:56:07.753Z,7.43
2023-04-04T09:58:41.955Z,7.48
2023-04-04T10:01:14.000Z,7.45
2023-04-04T10:03:41.109Z,7.51
2023-04-04T10:06:12.848Z,7.59
2023-04-04T10:08:42.121Z,7.71
2023-04-04T10:11:11.371Z,7.84
2023-04-04T10:13:42.124Z,7.89
2023-04-04T10:16:10.946Z,7.87
2023-04-04T10:18:38.499Z,7.87
2023-04-04T10:23:42.053Z,7.81
2023-04-04T10:26:09.221Z,7.92
2023-04-04T10:28:36.930Z,8.03
2023-04-04T10:31:16.293Z,8.09
2023-04-04T10:34:05.148Z,8.20
2023-04-04T10:36:50.206Z,8.37
2023-04-04T10:39:32.625Z,8.36
2023-04-04T10:42:01.600Z,8.37
2023-04-04T10:44:41.608Z,8.40
2023-04-04T10:47:21.758Z,8.39
2023-04-04T10:49:51.956Z,8.49
2023-04-04T10:52:22.731Z,8.52
2023-04-04T10:54:54.455Z,8.44
2023-04-04T10:57:23.178Z,8.40
2023-04-04T11:00:11.292Z,8.42
2023-04-04T11:03:02.506Z,8.61
2023-04-04T11:05:41.346Z,8.75
2023-04-04T11:08:13.944Z,8.83
2023-04-04T11:10:50.175Z,8.82
2023-04-04T11:13:22.078Z,8.72
2023-04-04T11:16:01.010Z,8.81
2023-04-04T11:18:43.659Z,8.94
2023-04-04T11:21:20.088Z,8.91
2023-04-04T11:23:50.220Z,8.89
2023-04-04T11:26:39.651Z,8.87
2023-04-04T11:29:08.658Z,8.94
2023-04-04T11:31:45.906Z,8.98
2023-04-04T11:34:16.072Z,9.12
2023-04-04T11:36:44.965Z,9.06
2023-04-04T11:39:22.729Z,9.13
2023-04-04T11:42:21.317Z,9.28
2023-04-04T11:44:51.056Z,9.41
2023-04-04T11:47:20.516Z,9.60
2023-04-04T11:49:47.872Z,9.68
2023-04-04T11:52:17.952Z,9.57
2023-04-04T11:54:48.077Z,9.61
2023-04-04T11:57:20.387Z,9.62
2023-04-04T11:59:50.828Z,9.56
2023-04-04T12:02:34.158Z,9.67
2023-04-04T12:05:01.625Z,9.75
2023-04-04T12:07:29.681Z,9.84
2023-04-04T12:09:57.719Z,9.91
2023-04-04T12:12:27.597Z,9.98
2023-04-04T12:15:06.313Z,9.91
2023-04-04T12:17:43.363Z,9.92
2023-04-04T12:20:11.407Z,10.01
2023-04-04T12:22:38.619Z,10.15
2023-04-04T12:25:06.453Z,10.03
2023-04-04T12:27:34.357Z,10.01
2023-04-04T12:30:04.084Z,10.09
2023-04-04T12:32:31.453Z,10.09
2023-04-04T12:35:01.429Z,10.14
2023-04-04T12:37:29.954Z,10.30
2023-04-04T12:39:57.981Z,10.43
2023-04-04T12:42:26.372Z,10.53
2023-04-04T12:44:54.843Z,10.46
2023-04-04T12:47:25.009Z,10.52
2023-04-04T12:49:55.017Z,10.50
2023-04-04T12:52:32.060Z,10.46
2023-04-04T12:55:10.325Z,10.33
2023-04-04T12:57:39.993Z,10.38
2023-04-04T13:00:09.166Z,10.52
2023-04-04T13:02:39.013Z,10.70
2023-04-04T13:05:07.572Z,10.78
2023-04-04T13:07:44.642Z,10.84
2023-04-04T13:10:16.413Z,10.97
2023-04-04T13:13:00.602Z,11.07
2023-04-04T13:15:52.971Z,11.11
2023-04-04T13:18:26.443Z,11.14
2023-04-04T13:20:55.452Z,11.19
2023-04-04T13:23:23.071Z,11.22
2023-04-04T13:25:50.452Z,11.32
2023-04-04T13:28:17.661Z,11.29
2023-04-04T13:30:49.073Z,11.40
2023-04-04T13:33:20.125Z,11.49
2023-04-04T13:35:47.240Z,11.50
2023-04-04T13:38:14.488Z,11.43
2023-04-04T13:40:41.633Z,11.30
2023-04-04T13:43:11.544Z,11.32
2023-04-04T13:45:39.077Z,11.38
2023-04-04T13:48:06.382Z,11.46
2023-04-04T13:50:36.831Z,11.33
2023-04-04T13:53:04.020Z,11.25
2023-04-04T13:55:31.250Z,11.28
2023-04-04T13:57:58.334Z,11.25
2023-04-04T14:00:25.697Z,11.30
2023-04-04T14:05:39.926Z,11.31
2023-04-04T14:08:08.448Z,11.42
2023-04-04T14:10:35.916Z,11.53
2023-04-04T14:13:03.489Z,11.71
2023-04-04T14:15:31.001Z,11.72
2023-04-04T14:17:57.990Z,11.71
2023-04-04T14:20:25.234Z,11.71
2023-04-04T14:22:52.233Z,11.89
2023-04-04T14:25:19.355Z,12.16
2023-04-04T14:27:46.464Z,12.23
2023-04-04T14:30:13.971Z,12.07
2023-04-04T14:32:41.756Z,12.00
2023-04-04T14:35:09.354Z,12.04
2023-04-04T14:37:37.109Z,11.94
2023-04-04T14:40:05.909Z,11.93
2023-04-04T14:42:32.936Z,11.88
2023-04-04T14:45:02.400Z,11.89
2023-04-04T14:47:29.422Z,11.95
2023-04-04T14:49:56.901Z,12.02
2023-04-04T14:52:24.358Z,11.95
2023-04-04T14:54:52.846Z,11.77
2023-04-04T14:57:19.895Z,11.75
2023-04-04T14:59:46.846Z,11.82
2023-04-04T15:02:13.866Z,11.99
2023-04-04T15:04:42.728Z,12.06
2023-04-04T15:07:10.578Z,11.90
2023-04-04T15:09:37.785Z,11.70
2023-04-04T15:12:04.913Z,11.56
2023-04-04T15:14:31.898Z,11.57
2023-04-04T15:16:59.109Z,11.63
2023-04-04T15:19:26.288Z,11.71
2023-04-04T15:21:54.803Z,11.71
2023-04-04T15:24:21.835Z,11.73
2023-04-04T15:26:48.793Z,11.73
2023-04-04T15:29:15.908Z,11.67
2023-04-04T15:31:42.970Z,11.64
2023-04-04T15:34:09.972Z,11.67
2023-04-04T15:36:36.987Z,11.74
2023-04-04T15:39:04.183Z,11.74
2023-04-04T15:41:31.477Z,11.75
2023-04-04T15:57:09.089Z,11.92
2023-04-04T15:59:37.191Z,11.92
2023-04-04T16:02:10.429Z,11.89
2023-04-04T16:04:37.697Z,11.80
2023-04-04T16:07:04.777Z,11.82
2023-04-04T16:09:31.994Z,11.63
2023-04-04T16:11:59.113Z,11.47
2023-04-04T16:14:26.015Z,11.34
2023-04-04T16:16:52.955Z,11.22
2023-04-04T16:19:20.060Z,11.18
2023-04-04T16:21:49.223Z,11.14
2023-04-04T16:24:16.929Z,11.15
2023-04-04T16:26:47.298Z,11.17
2023-04-04T16:29:17.086Z,11.03
2023-04-04T16:31:44.319Z,10.92
2023-04-04T16:34:11.429Z,10.85
2023-04-04T16:36:38.542Z,10.86
2023-04-04T16:39:07.377Z,10.73
2023-04-04T16:41:34.568Z,10.72
2023-04-04T16:44:01.637Z,10.78
2023-04-04T16:46:28.575Z,10.80
2023-04-04T16:48:55.664Z,10.79
2023-04-04T16:51:23.124Z,10.71
2023-04-04T16:53:50.021Z,10.58
2023-04-04T16:56:17.164Z,10.50
2023-04-04T16:58:46.095Z,10.44
2023-04-04T17:01:20.820Z,10.38
2023-04-04T17:03:49.054Z,10.31
2023-04-04T17:06:16.236Z,10.23
2023-04-04T17:08:45.022Z,10.20
2023-04-04T17:11:15.608Z,10.15
2023-04-04T17:13:43.040Z,10.08
2023-04-04T17:16:10.148Z,10.00
2023-04-04T17:18:37.215Z,9.92
2023-04-04T17:21:04.517Z,9.86
2023-04-04T17:23:31.525Z,9.77
2023-04-04T17:25:58.536Z,9.71
2023-04-04T17:28:25.714Z,9.67
2023-04-04T17:30:52.690Z,9.58
2023-04-04T17:33:21.112Z,9.49
2023-04-04T17:35:48.222Z,9.40
2023-04-04T17:38:15.478Z,9.33
2023-04-04T17:40:44.513Z,9.28
2023-04-04T17:43:11.482Z,9.28
2023-04-04T17:45:39.064Z,9.29
2023-04-04T17:48:06.675Z,9.27
2023-04-04T17:50:33.715Z,9.17
2023-04-04T17:53:01.912Z,9.08
2023-04-04T17:55:29.165Z,9.00
2023-04-04T17:57:57.243Z,8.93
2023-04-04T18:00:24.863Z,8.86
2023-04-04T18:02:51.997Z,8.80
2023-04-04T18:05:19.403Z,8.73
2023-04-04T18:07:46.421Z,8.67
2023-04-04T18:10:13.518Z,8.60
2023-04-04T18:12:41.148Z,8.55
2023-04-04T18:15:09.121Z,8.48
2023-04-04T18:17:36.390Z,8.42
2023-04-04T18:20:05.515Z,8.34
2023-04-04T18:22:33.811Z,8.27
2023-04-04T18:25:00.857Z,8.22
2023-04-04T18:27:27.836Z,8.16
2023-04-04T18:29:54.817Z,8.09
2023-04-04T18:32:25.582Z,8.05
2023-04-04T18:34:52.637Z,8.01
2023-04-04T18:37:20.093Z,7.96
2023-04-04T18:39:47.151Z,7.92
2023-04-04T18:42:15.610Z,7.87
2023-04-04T18:44:42.780Z,7.81
2023-04-04T18:47:09.844Z,7.75
2023-04-04T18:49:36.965Z,7.72
2023-04-04T18:52:04.883Z,7.67
2023-04-04T18:54:31.949Z,7.64
2023-04-04T18:56:59.064Z,7.61
2023-04-04T18:59:26.527Z,7.55
2023-04-04T19:01:54.108Z,7.51
2023-04-04T19:04:21.979Z,7.45
2023-04-04T19:06:51.651Z,7.40
2023-04-04T19:09:21.207Z,7.34
2023-04-04T19:11:49.623Z,7.28
2023-04-04T19:14:16.942Z,7.21
2023-04-04T19:16:43.958Z,7.12
2023-04-04T19:19:12.316Z,7.04
2023-04-04T19:21:39.562Z,6.95
2023-04-04T19:24:07.859Z,6.87
2023-04-04T19:26:34.947Z,6.77
2023-04-04T19:29:01.943Z,6.68
2023-04-04T19:31:33.111Z,6.60
2023-04-04T19:34:03.318Z,6.51
2023-04-04T19:36:39.823Z,6.48
2023-04-04T19:39:10.516Z,6.44
2023-04-04T19:41:40.766Z,6.41
2023-04-04T19:44:20.406Z,6.39
2023-04-04T19:46:47.756Z,6.33
2023-04-04T19:49:16.637Z,6.28
2023-04-04T19:52:00.403Z,6.24
2023-04-04T19:54:31.731Z,6.19
2023-04-04T19:57:07.571Z,6.14
2023-04-04T20:00:01.694Z,6.11
2023-04-04T20:02:33.170Z,6.06
2023-04-04T20:05:01.120Z,6.04
2023-04-04T20:07:29.006Z,5.99
2023-04-04T20:09:56.288Z,5.96
2023-04-04T20:12:27.057Z,5.95
2023-04-04T20:14:59.531Z,5.89
2023-04-04T20:17:26.651Z,5.87
2023-04-04T20:19:53.599Z,5.83
2023-04-04T20:22:23.164Z,5.79
2023-04-04T20:24:50.328Z,5.76
2023-04-04T20:27:24.056Z,5.73
2023-04-04T20:29:53.989Z,5.73
2023-04-04T20:32:21.009Z,5.70
2023-04-04T20:34:50.172Z,5.66
2023-04-04T20:37:22.062Z,5.59
2023-04-04T20:39:59.268Z,5.51
2023-04-04T20:42:29.064Z,5.44
2023-04-04T20:45:27.983Z,5.40
2023-04-04T20:47:57.800Z,5.29
2023-04-04T20:50:27.008Z,5.19
2023-04-04T20:53:01.615Z,5.09
2023-04-04T20:55:30.778Z,4.97
2023-04-04T20:58:06.111Z,4.89
2023-04-04T21:00:33.939Z,4.83
2023-04-04T21:03:25.044Z,4.79
2023-04-04T21:06:16.612Z,4.76
2023-04-04T21:08:51.077Z,4.71
2023-04-04T21:11:29.081Z,4.69
2023-04-04T21:13:57.287Z,4.62
2023-04-04T21:16:27.575Z,4.54
2023-04-04T21:19:01.390Z,4.44
2023-04-04T21:21:32.011Z,4.33
2023-04-04T21:24:00.298Z,4.24
2023-04-04T21:26:36.677Z,4.14
2023-04-04T21:29:16.844Z,4.08
2023-04-04T21:31:44.022Z,4.02
2023-04-04T21:34:14.842Z,3.96
2023-04-04T21:36:43.296Z,3.91
2023-04-04T21:39:23.625Z,3.86
2023-04-04T21:42:03.265Z,3.82
2023-04-04T21:44:31.695Z,3.81
2023-04-04T21:46:58.672Z,3.78
2023-04-04T21:49:26.481Z,3.78
2023-04-04T21:51:53.471Z,3.76
2023-04-04T21:54:20.510Z,3.75
2023-04-04T21:56:47.591Z,3.72
2023-04-04T21:59:14.834Z,3.71
2023-04-04T22:01:42.209Z,3.65
2023-04-04T22:04:09.307Z,3.61
2023-04-04T22:06:36.451Z,3.55
2023-04-04T22:09:05.235Z,3.49
2023-04-04T22:11:34.332Z,3.41
2023-04-04T22:14:04.708Z,3.35
2023-04-04T22:16:36.830Z,3.31
2023-04-04T22:19:04.531Z,3.25
2023-04-04T22:21:36.265Z,3.19
2023-04-04T22:24:05.904Z,3.09
2023-04-04T22:26:33.851Z,3.02
2023-04-04T22:29:03.764Z,2.92
2023-04-04T22:31:34.347Z,2.85
2023-04-04T22:34:03.199Z,2.77
2023-04-04T22:36:30.963Z,2.69
2023-04-04T22:38:58.408Z,2.60
2023-04-04T22:41:28.581Z,2.52
2023-04-04T22:43:57.859Z,2.45
2023-04-04T22:46:26.597Z,2.39
2023-04-04T22:49:05.641Z,2.32
2023-04-04T22:51:42.767Z,2.25
2023-04-04T22:54:10.556Z,2.20
2023-04-04T22:56:37.509Z,2.15
2023-04-04T22:59:04.592Z,2.09
2023-04-04T23:01:31.659Z,2.02
2023-04-04T23:03:58.693Z,1.94
2023-04-04T23:06:25.669Z,1.85
2023-04-04T23:08:52.602Z,1.79
2023-04-04T23:11:19.605Z,1.72
2023-04-04T23:13:47.210Z,1.64
2023-04-04T23:16:14.276Z,1.56
2023-04-04T23:18:41.246Z,1.50
2023-04-04T23:21:08.281Z,1.45
2023-04-04T23:23:35.240Z,1.39
2023-04-04T23:26:02.183Z,1.33
2023-04-04T23:28:29.649Z,1.27
2023-04-04T23:30:56.732Z,1.22
2023-04-04T23:33:23.855Z,1.21
2023-04-04T23:35:50.978Z,1.18
2023-04-04T23:38:18.018Z,1.13
2023-04-04T23:40:44.964Z,1.09
2023-04-04T23:43:11.870Z,1.05
2023-04-04T23:45:40.352Z,1.01
2023-04-04T23:48:07.609Z,1.01
2023-04-04T23:50:34.683Z,0.97
2023-04-04T23:53:01.837Z,0.93
2023-04-04T23:55:28.873Z,0.91
2023-04-04T23:58:00.718Z,0.87
